sensor_id;sensor_type;location;lat;lon;timestamp;temperature;humidity
3528;DHT22;1778;47.966;7.854;2023-04-25T00:00:50;10.20;99.90
3528;DHT22;1778;47.966;7.854;2023-04-25T00:01:53;10.20;99.90
3528;DHT22;1778;47.966;7.854;2023-04-25T00:02:55;10.20;99.90
3528;DHT22;1778;47.966;7.854;2023-04-25T00:04:01;10.20;99.90
3528;DHT22;1778;47.966;7.854;2023-04-25T00:05:06;10.20;99.90
3528;DHT22;1778;47.966;7.854;2023-04-25T00:06:08;10.20;99.90
3528;DHT22;1778;47.966;7.854;2023-04-25T00:07:10;10.10;99.90
3528;DHT22;1778;47.966;7.854;2023-04-25T00:08:14;10.10;99.90
3528;DHT22;1778;47.966;7.854;2023-04-25T00:09:16;10.20;99.90
3528;DHT22;1778;47.966;7.854;2023-04-25T00:10:18;10.20;99.90
3528;DHT22;1778;47.966;7.854;2023-04-25T00:11:20;10.20;99.90
3528;DHT22;1778;47.966;7.854;2023-04-25T00:12:22;10.20;99.90
3528;DHT22;1778;47.966;7.854;2023-04-25T00:13:24;10.20;99.90
3528;DHT22;1778;47.966;7.854;2023-04-25T00:14:27;10.20;99.90
3528;DHT22;1778;47.966;7.854;2023-04-25T00:15:29;10.20;99.90
3528;DHT22;1778;47.966;7.854;2023-04-25T00:16:34;10.20;99.90
3528;DHT22;1778;47.966;7.854;2023-04-25T00:17:36;10.10;99.90
3528;DHT22;1778;47.966;7.854;2023-04-25T00:18:39;10.20;99.90
3528;DHT22;1778;47.966;7.854;2023-04-25T00:19:42;10.20;99.90
3528;DHT22;1778;47.966;7.854;2023-04-25T00:20:46;10.30;99.90
3528;DHT22;1778;47.966;7.854;2023-04-25T00:21:47;10.20;99.90
3528;DHT22;1778;47.966;7.854;2023-04-25T00:22:49;10.20;99.90
3528;DHT22;1778;47.966;7.854;2023-04-25T00:23:53;10.30;99.90
3528;DHT22;1778;47.966;7.854;2023-04-25T00:24:54;10.20;99.90
3528;DHT22;1778;47.966;7.854;2023-04-25T00:25:58;10.20;99.90
3528;DHT22;1778;47.966;7.854;2023-04-25T00:27:00;10.20;99.90
3528;DHT22;1778;47.966;7.854;2023-04-25T00:28:01;10.20;99.90
3528;DHT22;1778;47.966;7.854;2023-04-25T00:29:03;10.20;99.90
3528;DHT22;1778;47.966;7.854;2023-04-25T00:30:05;10.20;99.90
3528;DHT22;1778;47.966;7.854;2023-04-25T00:31:07;10.20;99.90
3528;DHT22;1778;47.966;7.854;2023-04-25T00:32:08;10.20;99.90
3528;DHT22;1778;47.966;7.854;2023-04-25T00:33:13;10.20;99.90
3528;DHT22;1778;47.966;7.854;2023-04-25T00:34:14;10.20;99.90
3528;DHT22;1778;47.966;7.854;2023-04-25T00:35:16;10.30;99.90
3528;DHT22;1778;47.966;7.854;2023-04-25T00:36:18;10.20;99.90
3528;DHT22;1778;47.966;7.854;2023-04-25T00:37:20;10.20;99.90
3528;DHT22;1778;47.966;7.854;2023-04-25T00:38:22;10.10;99.90
3528;DHT22;1778;47.966;7.854;2023-04-25T00:39:24;10.10;99.90
3528;DHT22;1778;47.966;7.854;2023-04-25T00:40:25;10.10;99.90
3528;DHT22;1778;47.966;7.854;2023-04-25T00:41:27;10.10;99.90
3528;DHT22;1778;47.966;7.854;2023-04-25T00:42:29;10.10;99.90
3528;DHT22;1778;47.966;7.854;2023-04-25T00:43:32;10.00;99.90
3528;DHT22;1778;47.966;7.854;2023-04-25T00:44:34;10.00;99.90
3528;DHT22;1778;47.966;7.854;2023-04-25T00:45:38;10.10;99.90
3528;DHT22;1778;47.966;7.854;2023-04-25T00:46:40;10.20;99.90
3528;DHT22;1778;47.966;7.854;2023-04-25T00:47:43;10.10;99.90
3528;DHT22;1778;47.966;7.854;2023-04-25T00:48:45;10.00;99.90
3528;DHT22;1778;47.966;7.854;2023-04-25T00:49:47;10.00;99.90
3528;DHT22;1778;47.966;7.854;2023-04-25T00:50:52;10.00;99.90
3528;DHT22;1778;47.966;7.854;2023-04-25T00:51:55;9.90;99.90
3528;DHT22;1778;47.966;7.854;2023-04-25T00:52:57;9.90;99.90
3528;DHT22;1778;47.966;7.854;2023-04-25T00:53:59;9.80;99.90
3528;DHT22;1778;47.966;7.854;2023-04-25T00:55:01;9.80;99.90
3528;DHT22;1778;47.966;7.854;2023-04-25T00:56:02;9.80;99.90
3528;DHT22;1778;47.966;7.854;2023-04-25T00:57:04;9.80;99.90
3528;DHT22;1778;47.966;7.854;2023-04-25T00:58:06;9.80;99.90
3528;DHT22;1778;47.966;7.854;2023-04-25T00:59:09;9.80;99.90
3528;DHT22;1778;47.966;7.854;2023-04-25T01:00:12;9.80;99.90
3528;DHT22;1778;47.966;7.854;2023-04-25T01:01:15;9.80;99.90
3528;DHT22;1778;47.966;7.854;2023-04-25T01:02:18;9.80;99.90
3528;DHT22;1778;47.966;7.854;2023-04-25T01:03:21;9.80;99.90
3528;DHT22;1778;47.966;7.854;2023-04-25T01:04:23;9.70;99.90
3528;DHT22;1778;47.966;7.854;2023-04-25T01:05:25;9.80;99.90
3528;DHT22;1778;47.966;7.854;2023-04-25T01:06:27;9.80;99.90
3528;DHT22;1778;47.966;7.854;2023-04-25T01:07:29;9.80;99.90
3528;DHT22;1778;47.966;7.854;2023-04-25T01:08:31;9.80;99.90
3528;DHT22;1778;47.966;7.854;2023-04-25T01:09:33;9.80;99.90
3528;DHT22;1778;47.966;7.854;2023-04-25T01:10:35;9.90;99.90
3528;DHT22;1778;47.966;7.854;2023-04-25T01:11:37;9.90;99.90
3528;DHT22;1778;47.966;7.854;2023-04-25T01:12:39;9.80;99.90
3528;DHT22;1778;47.966;7.854;2023-04-25T01:13:41;9.80;99.90
3528;DHT22;1778;47.966;7.854;2023-04-25T01:14:43;9.70;99.90
3528;DHT22;1778;47.966;7.854;2023-04-25T01:15:44;9.70;99.90
3528;DHT22;1778;47.966;7.854;2023-04-25T01:16:46;9.60;99.90
3528;DHT22;1778;47.966;7.854;2023-04-25T01:17:48;9.60;99.90
3528;DHT22;1778;47.966;7.854;2023-04-25T01:18:51;9.50;99.90
3528;DHT22;1778;47.966;7.854;2023-04-25T01:19:53;9.40;99.90
3528;DHT22;1778;47.966;7.854;2023-04-25T01:20:54;9.40;99.90
3528;DHT22;1778;47.966;7.854;2023-04-25T01:21:57;9.50;99.90
3528;DHT22;1778;47.966;7.854;2023-04-25T01:23:00;9.40;99.90
3528;DHT22;1778;47.966;7.854;2023-04-25T01:24:03;9.40;99.90
3528;DHT22;1778;47.966;7.854;2023-04-25T01:25:06;9.50;99.90
3528;DHT22;1778;47.966;7.854;2023-04-25T01:26:10;9.40;99.90
3528;DHT22;1778;47.966;7.854;2023-04-25T01:27:12;9.30;99.90
3528;DHT22;1778;47.966;7.854;2023-04-25T01:28:14;9.30;99.90
3528;DHT22;1778;47.966;7.854;2023-04-25T01:29:36;9.30;99.90
3528;DHT22;1778;47.966;7.854;2023-04-25T01:30:39;9.30;99.90
3528;DHT22;1778;47.966;7.854;2023-04-25T01:31:41;9.30;99.90
3528;DHT22;1778;47.966;7.854;2023-04-25T01:32:47;9.30;99.90
3528;DHT22;1778;47.966;7.854;2023-04-25T01:33:52;9.20;99.90
3528;DHT22;1778;47.966;7.854;2023-04-25T01:34:54;9.30;99.90
3528;DHT22;1778;47.966;7.854;2023-04-25T01:35:56;9.20;99.90
3528;DHT22;1778;47.966;7.854;2023-04-25T01:36:59;9.20;99.90
3528;DHT22;1778;47.966;7.854;2023-04-25T01:38:02;9.10;99.90
3528;DHT22;1778;47.966;7.854;2023-04-25T01:39:04;9.10;99.90
3528;DHT22;1778;47.966;7.854;2023-04-25T01:40:07;9.10;99.90
3528;DHT22;1778;47.966;7.854;2023-04-25T01:41:10;9.10;99.90
3528;DHT22;1778;47.966;7.854;2023-04-25T01:42:12;9.10;99.90
3528;DHT22;1778;47.966;7.854;2023-04-25T01:43:14;9.20;99.90
3528;DHT22;1778;47.966;7.854;2023-04-25T01:44:16;9.20;99.90
3528;DHT22;1778;47.966;7.854;2023-04-25T01:45:18;9.10;99.90
3528;DHT22;1778;47.966;7.854;2023-04-25T01:46:20;9.10;99.90
3528;DHT22;1778;47.966;7.854;2023-04-25T01:47:22;9.00;99.90
3528;DHT22;1778;47.966;7.854;2023-04-25T01:48:24;9.10;99.90
3528;DHT22;1778;47.966;7.854;2023-04-25T01:49:27;9.10;99.90
3528;DHT22;1778;47.966;7.854;2023-04-25T01:50:29;9.10;99.90
3528;DHT22;1778;47.966;7.854;2023-04-25T01:51:31;9.10;99.90
3528;DHT22;1778;47.966;7.854;2023-04-25T01:52:33;9.10;99.90
3528;DHT22;1778;47.966;7.854;2023-04-25T01:53:35;9.00;99.90
3528;DHT22;1778;47.966;7.854;2023-04-25T01:54:38;9.00;99.90
3528;DHT22;1778;47.966;7.854;2023-04-25T01:55:40;9.00;99.90
3528;DHT22;1778;47.966;7.854;2023-04-25T01:56:50;9.10;99.90
3528;DHT22;1778;47.966;7.854;2023-04-25T01:57:53;9.00;99.90
3528;DHT22;1778;47.966;7.854;2023-04-25T01:59:01;9.00;99.90
3528;DHT22;1778;47.966;7.854;2023-04-25T02:00:21;9.00;99.90
3528;DHT22;1778;47.966;7.854;2023-04-25T02:01:23;9.00;99.90
3528;DHT22;1778;47.966;7.854;2023-04-25T02:02:42;9.00;99.90
3528;DHT22;1778;47.966;7.854;2023-04-25T02:04:05;9.00;99.90
3528;DHT22;1778;47.966;7.854;2023-04-25T02:05:10;9.10;99.90
3528;DHT22;1778;47.966;7.854;2023-04-25T02:06:13;9.10;99.90
3528;DHT22;1778;47.966;7.854;2023-04-25T02:07:18;9.00;99.90
3528;DHT22;1778;47.966;7.854;2023-04-25T02:08:26;9.10;99.90
3528;DHT22;1778;47.966;7.854;2023-04-25T02:09:29;9.00;99.90
3528;DHT22;1778;47.966;7.854;2023-04-25T02:10:31;9.10;99.90
3528;DHT22;1778;47.966;7.854;2023-04-25T02:11:44;9.10;99.90
3528;DHT22;1778;47.966;7.854;2023-04-25T02:13:02;9.20;99.90
3528;DHT22;1778;47.966;7.854;2023-04-25T02:14:30;9.10;99.90
3528;DHT22;1778;47.966;7.854;2023-04-25T02:15:58;9.00;99.90
3528;DHT22;1778;47.966;7.854;2023-04-25T02:17:00;9.00;99.90
3528;DHT22;1778;47.966;7.854;2023-04-25T02:18:04;9.00;99.90
3528;DHT22;1778;47.966;7.854;2023-04-25T02:19:07;9.10;99.90
3528;DHT22;1778;47.966;7.854;2023-04-25T02:20:09;9.10;99.90
3528;DHT22;1778;47.966;7.854;2023-04-25T02:21:13;9.10;99.90
3528;DHT22;1778;47.966;7.854;2023-04-25T02:22:16;9.00;99.90
3528;DHT22;1778;47.966;7.854;2023-04-25T02:23:19;9.00;99.90
3528;DHT22;1778;47.966;7.854;2023-04-25T02:24:21;9.00;99.90
3528;DHT22;1778;47.966;7.854;2023-04-25T02:25:22;9.10;99.90
3528;DHT22;1778;47.966;7.854;2023-04-25T02:26:24;9.10;99.90
3528;DHT22;1778;47.966;7.854;2023-04-25T02:27:26;9.10;99.90
3528;DHT22;1778;47.966;7.854;2023-04-25T02:28:27;9.10;99.90
3528;DHT22;1778;47.966;7.854;2023-04-25T02:29:29;9.10;99.90
3528;DHT22;1778;47.966;7.854;2023-04-25T02:30:31;9.10;99.90
3528;DHT22;1778;47.966;7.854;2023-04-25T02:31:32;9.00;99.90
3528;DHT22;1778;47.966;7.854;2023-04-25T02:32:34;9.10;99.90
3528;DHT22;1778;47.966;7.854;2023-04-25T02:33:36;9.00;99.90
3528;DHT22;1778;47.966;7.854;2023-04-25T02:34:39;9.00;99.90
3528;DHT22;1778;47.966;7.854;2023-04-25T02:35:41;9.00;99.90
3528;DHT22;1778;47.966;7.854;2023-04-25T02:36:42;9.00;99.90
3528;DHT22;1778;47.966;7.854;2023-04-25T02:37:44;9.10;99.90
3528;DHT22;1778;47.966;7.854;2023-04-25T02:38:47;9.10;99.90
3528;DHT22;1778;47.966;7.854;2023-04-25T02:39:48;9.20;99.90
3528;DHT22;1778;47.966;7.854;2023-04-25T02:40:50;9.20;99.90
3528;DHT22;1778;47.966;7.854;2023-04-25T02:41:52;9.30;99.90
3528;DHT22;1778;47.966;7.854;2023-04-25T02:42:55;9.20;99.90
3528;DHT22;1778;47.966;7.854;2023-04-25T02:43:57;9.20;99.90
3528;DHT22;1778;47.966;7.854;2023-04-25T02:44:58;9.20;99.90
3528;DHT22;1778;47.966;7.854;2023-04-25T02:46:00;9.10;99.90
3528;DHT22;1778;47.966;7.854;2023-04-25T02:47:02;9.10;99.90
3528;DHT22;1778;47.966;7.854;2023-04-25T02:48:04;9.10;99.90
3528;DHT22;1778;47.966;7.854;2023-04-25T02:49:06;9.10;99.90
3528;DHT22;1778;47.966;7.854;2023-04-25T02:50:10;9.00;99.90
3528;DHT22;1778;47.966;7.854;2023-04-25T02:51:13;9.00;99.90
3528;DHT22;1778;47.966;7.854;2023-04-25T02:52:17;9.00;99.90
3528;DHT22;1778;47.966;7.854;2023-04-25T02:53:25;9.00;99.90
3528;DHT22;1778;47.966;7.854;2023-04-25T02:54:28;9.00;99.90
3528;DHT22;1778;47.966;7.854;2023-04-25T02:55:30;9.00;99.90
3528;DHT22;1778;47.966;7.854;2023-04-25T02:56:34;8.90;99.90
3528;DHT22;1778;47.966;7.854;2023-04-25T02:57:36;9.00;99.90
3528;DHT22;1778;47.966;7.854;2023-04-25T02:58:38;9.00;99.90
3528;DHT22;1778;47.966;7.854;2023-04-25T02:59:40;9.00;99.90
3528;DHT22;1778;47.966;7.854;2023-04-25T03:00:41;9.00;99.90
3528;DHT22;1778;47.966;7.854;2023-04-25T03:01:43;9.00;99.90
3528;DHT22;1778;47.966;7.854;2023-04-25T03:02:46;9.00;99.90
3528;DHT22;1778;47.966;7.854;2023-04-25T03:03:48;9.00;99.90
3528;DHT22;1778;47.966;7.854;2023-04-25T03:04:50;9.00;99.90
3528;DHT22;1778;47.966;7.854;2023-04-25T03:05:52;9.00;99.90
3528;DHT22;1778;47.966;7.854;2023-04-25T03:06:58;9.00;99.90
3528;DHT22;1778;47.966;7.854;2023-04-25T03:08:00;9.00;99.90
3528;DHT22;1778;47.966;7.854;2023-04-25T03:09:02;8.90;99.90
3528;DHT22;1778;47.966;7.854;2023-04-25T03:10:06;9.00;99.90
3528;DHT22;1778;47.966;7.854;2023-04-25T03:11:09;9.00;99.90
3528;DHT22;1778;47.966;7.854;2023-04-25T03:12:12;9.00;99.90
3528;DHT22;1778;47.966;7.854;2023-04-25T03:13:13;8.90;99.90
3528;DHT22;1778;47.966;7.854;2023-04-25T03:14:18;8.90;99.90
3528;DHT22;1778;47.966;7.854;2023-04-25T03:15:19;8.90;99.90
3528;DHT22;1778;47.966;7.854;2023-04-25T03:16:22;9.00;99.90
3528;DHT22;1778;47.966;7.854;2023-04-25T03:17:23;9.00;99.90
3528;DHT22;1778;47.966;7.854;2023-04-25T03:18:25;9.00;99.90
3528;DHT22;1778;47.966;7.854;2023-04-25T03:19:28;9.00;99.90
3528;DHT22;1778;47.966;7.854;2023-04-25T03:20:30;9.00;99.90
3528;DHT22;1778;47.966;7.854;2023-04-25T03:21:33;8.90;99.90
3528;DHT22;1778;47.966;7.854;2023-04-25T03:22:35;8.90;99.90
3528;DHT22;1778;47.966;7.854;2023-04-25T03:23:38;8.90;99.90
3528;DHT22;1778;47.966;7.854;2023-04-25T03:24:41;8.90;99.90
3528;DHT22;1778;47.966;7.854;2023-04-25T03:25:43;8.90;99.90
3528;DHT22;1778;47.966;7.854;2023-04-25T03:26:44;9.00;99.90
3528;DHT22;1778;47.966;7.854;2023-04-25T03:27:48;9.00;99.90
3528;DHT22;1778;47.966;7.854;2023-04-25T03:28:50;9.00;99.90
3528;DHT22;1778;47.966;7.854;2023-04-25T03:29:51;9.00;99.90
3528;DHT22;1778;47.966;7.854;2023-04-25T03:30:54;9.00;99.90
3528;DHT22;1778;47.966;7.854;2023-04-25T03:31:56;9.00;99.90
3528;DHT22;1778;47.966;7.854;2023-04-25T03:32:58;9.00;99.90
3528;DHT22;1778;47.966;7.854;2023-04-25T03:34:00;9.00;99.90
3528;DHT22;1778;47.966;7.854;2023-04-25T03:35:02;9.00;99.90
3528;DHT22;1778;47.966;7.854;2023-04-25T03:36:05;8.90;99.90
3528;DHT22;1778;47.966;7.854;2023-04-25T03:37:07;8.90;99.90
3528;DHT22;1778;47.966;7.854;2023-04-25T03:38:11;9.00;99.90
3528;DHT22;1778;47.966;7.854;2023-04-25T03:39:14;8.90;99.90
3528;DHT22;1778;47.966;7.854;2023-04-25T03:40:20;9.00;99.90
3528;DHT22;1778;47.966;7.854;2023-04-25T03:41:51;8.90;99.90
3528;DHT22;1778;47.966;7.854;2023-04-25T03:42:56;8.90;99.90
3528;DHT22;1778;47.966;7.854;2023-04-25T03:43:58;8.90;99.90
3528;DHT22;1778;47.966;7.854;2023-04-25T03:45:00;8.80;99.90
3528;DHT22;1778;47.966;7.854;2023-04-25T03:46:03;8.80;99.90
3528;DHT22;1778;47.966;7.854;2023-04-25T03:47:05;8.80;99.90
3528;DHT22;1778;47.966;7.854;2023-04-25T03:48:08;8.80;99.90
3528;DHT22;1778;47.966;7.854;2023-04-25T03:49:10;8.80;99.90
3528;DHT22;1778;47.966;7.854;2023-04-25T03:50:29;8.70;99.90
3528;DHT22;1778;47.966;7.854;2023-04-25T03:51:32;8.60;99.90
3528;DHT22;1778;47.966;7.854;2023-04-25T03:52:35;8.70;99.90
3528;DHT22;1778;47.966;7.854;2023-04-25T03:53:37;8.60;99.90
3528;DHT22;1778;47.966;7.854;2023-04-25T03:54:48;8.60;99.90
3528;DHT22;1778;47.966;7.854;2023-04-25T03:55:52;8.50;99.90
3528;DHT22;1778;47.966;7.854;2023-04-25T03:56:54;8.40;99.90
3528;DHT22;1778;47.966;7.854;2023-04-25T03:57:58;8.40;99.90
3528;DHT22;1778;47.966;7.854;2023-04-25T03:59:00;8.40;99.90
3528;DHT22;1778;47.966;7.854;2023-04-25T04:00:04;8.40;99.90
3528;DHT22;1778;47.966;7.854;2023-04-25T04:01:13;8.30;99.90
3528;DHT22;1778;47.966;7.854;2023-04-25T04:02:15;8.30;99.90
3528;DHT22;1778;47.966;7.854;2023-04-25T04:03:17;8.20;99.90
3528;DHT22;1778;47.966;7.854;2023-04-25T04:04:19;8.20;99.90
3528;DHT22;1778;47.966;7.854;2023-04-25T04:05:21;8.10;99.90
3528;DHT22;1778;47.966;7.854;2023-04-25T04:06:28;8.00;99.90
3528;DHT22;1778;47.966;7.854;2023-04-25T04:07:37;8.00;99.90
3528;DHT22;1778;47.966;7.854;2023-04-25T04:08:43;8.10;99.90
3528;DHT22;1778;47.966;7.854;2023-04-25T04:09:45;8.10;99.90
3528;DHT22;1778;47.966;7.854;2023-04-25T04:10:52;8.00;99.90
3528;DHT22;1778;47.966;7.854;2023-04-25T04:11:54;8.00;99.90
3528;DHT22;1778;47.966;7.854;2023-04-25T04:12:56;7.90;99.90
3528;DHT22;1778;47.966;7.854;2023-04-25T04:13:58;7.90;99.90
3528;DHT22;1778;47.966;7.854;2023-04-25T04:15:00;7.90;99.90
3528;DHT22;1778;47.966;7.854;2023-04-25T04:16:02;7.90;99.90
3528;DHT22;1778;47.966;7.854;2023-04-25T04:17:05;7.90;99.90
3528;DHT22;1778;47.966;7.854;2023-04-25T04:18:07;7.80;99.90
3528;DHT22;1778;47.966;7.854;2023-04-25T04:19:09;7.90;99.90
3528;DHT22;1778;47.966;7.854;2023-04-25T04:20:13;7.80;99.90
3528;DHT22;1778;47.966;7.854;2023-04-25T04:21:15;7.90;99.90
3528;DHT22;1778;47.966;7.854;2023-04-25T04:22:17;7.90;99.90
3528;DHT22;1778;47.966;7.854;2023-04-25T04:23:19;7.90;99.90
3528;DHT22;1778;47.966;7.854;2023-04-25T04:24:22;7.90;99.90
3528;DHT22;1778;47.966;7.854;2023-04-25T04:25:28;7.80;99.90
3528;DHT22;1778;47.966;7.854;2023-04-25T04:26:39;7.90;99.90
3528;DHT22;1778;47.966;7.854;2023-04-25T04:27:53;7.80;99.90
3528;DHT22;1778;47.966;7.854;2023-04-25T04:29:11;7.80;99.90
3528;DHT22;1778;47.966;7.854;2023-04-25T04:30:25;7.80;99.90
3528;DHT22;1778;47.966;7.854;2023-04-25T04:31:31;7.80;99.90
3528;DHT22;1778;47.966;7.854;2023-04-25T04:32:33;7.90;99.90
3528;DHT22;1778;47.966;7.854;2023-04-25T04:33:39;7.90;99.90
3528;DHT22;1778;47.966;7.854;2023-04-25T04:34:42;7.90;99.90
3528;DHT22;1778;47.966;7.854;2023-04-25T04:35:46;7.90;99.90
3528;DHT22;1778;47.966;7.854;2023-04-25T04:36:49;7.90;99.90
3528;DHT22;1778;47.966;7.854;2023-04-25T04:37:51;7.90;99.90
3528;DHT22;1778;47.966;7.854;2023-04-25T04:38:54;7.90;99.90
3528;DHT22;1778;47.966;7.854;2023-04-25T04:40:08;7.90;99.90
3528;DHT22;1778;47.966;7.854;2023-04-25T04:41:16;7.90;99.90
3528;DHT22;1778;47.966;7.854;2023-04-25T04:42:28;7.90;99.90
3528;DHT22;1778;47.966;7.854;2023-04-25T04:43:33;7.90;99.90
3528;DHT22;1778;47.966;7.854;2023-04-25T04:45:03;7.90;99.90
3528;DHT22;1778;47.966;7.854;2023-04-25T04:46:18;8.00;99.90
3528;DHT22;1778;47.966;7.854;2023-04-25T04:47:49;8.00;99.90
3528;DHT22;1778;47.966;7.854;2023-04-25T04:49:10;8.00;99.90
3528;DHT22;1778;47.966;7.854;2023-04-25T04:50:33;8.00;99.90
3528;DHT22;1778;47.966;7.854;2023-04-25T04:51:50;8.00;99.90
3528;DHT22;1778;47.966;7.854;2023-04-25T04:53:12;8.00;99.90
3528;DHT22;1778;47.966;7.854;2023-04-25T04:54:28;8.00;99.90
3528;DHT22;1778;47.966;7.854;2023-04-25T04:55:52;8.10;99.90
3528;DHT22;1778;47.966;7.854;2023-04-25T04:57:05;8.10;99.90
3528;DHT22;1778;47.966;7.854;2023-04-25T04:58:25;8.10;99.90
3528;DHT22;1778;47.966;7.854;2023-04-25T04:59:54;8.10;99.90
3528;DHT22;1778;47.966;7.854;2023-04-25T05:01:15;8.10;99.90
3528;DHT22;1778;47.966;7.854;2023-04-25T05:02:34;8.10;99.90
3528;DHT22;1778;47.966;7.854;2023-04-25T05:04:05;8.10;99.90
3528;DHT22;1778;47.966;7.854;2023-04-25T05:05:26;8.20;99.90
3528;DHT22;1778;47.966;7.854;2023-04-25T05:06:46;8.20;99.90
3528;DHT22;1778;47.966;7.854;2023-04-25T05:08:12;8.20;99.90
3528;DHT22;1778;47.966;7.854;2023-04-25T05:09:25;8.20;99.90
3528;DHT22;1778;47.966;7.854;2023-04-25T05:10:40;8.20;99.90
3528;DHT22;1778;47.966;7.854;2023-04-25T05:12:07;8.20;99.90
3528;DHT22;1778;47.966;7.854;2023-04-25T05:13:27;8.20;99.90
3528;DHT22;1778;47.966;7.854;2023-04-25T05:14:46;8.20;99.90
3528;DHT22;1778;47.966;7.854;2023-04-25T05:16:05;8.20;99.90
3528;DHT22;1778;47.966;7.854;2023-04-25T05:17:25;8.40;99.90
3528;DHT22;1778;47.966;7.854;2023-04-25T05:18:54;8.40;99.90
3528;DHT22;1778;47.966;7.854;2023-04-25T05:20:14;8.30;99.90
3528;DHT22;1778;47.966;7.854;2023-04-25T05:21:41;8.30;99.90
3528;DHT22;1778;47.966;7.854;2023-04-25T05:23:02;8.30;99.90
3528;DHT22;1778;47.966;7.854;2023-04-25T05:24:29;8.30;99.90
3528;DHT22;1778;47.966;7.854;2023-04-25T05:25:56;8.40;99.90
3528;DHT22;1778;47.966;7.854;2023-04-25T05:27:24;8.30;99.90
3528;DHT22;1778;47.966;7.854;2023-04-25T05:28:53;8.30;99.90
3528;DHT22;1778;47.966;7.854;2023-04-25T05:30:09;8.20;99.90
3528;DHT22;1778;47.966;7.854;2023-04-25T05:31:32;8.20;99.90
3528;DHT22;1778;47.966;7.854;2023-04-25T05:32:42;8.30;99.90
3528;DHT22;1778;47.966;7.854;2023-04-25T05:33:43;8.30;99.90
3528;DHT22;1778;47.966;7.854;2023-04-25T05:34:46;8.30;99.90
3528;DHT22;1778;47.966;7.854;2023-04-25T05:35:56;8.30;99.90
3528;DHT22;1778;47.966;7.854;2023-04-25T05:36:59;8.20;99.90
3528;DHT22;1778;47.966;7.854;2023-04-25T05:38:01;8.30;99.90
3528;DHT22;1778;47.966;7.854;2023-04-25T05:39:26;8.30;99.90
3528;DHT22;1778;47.966;7.854;2023-04-25T05:40:46;8.20;99.90
3528;DHT22;1778;47.966;7.854;2023-04-25T05:42:07;8.20;99.90
3528;DHT22;1778;47.966;7.854;2023-04-25T05:43:27;8.10;99.90
3528;DHT22;1778;47.966;7.854;2023-04-25T05:44:37;8.10;99.90
3528;DHT22;1778;47.966;7.854;2023-04-25T05:45:53;8.10;99.90
3528;DHT22;1778;47.966;7.854;2023-04-25T05:47:04;8.10;99.90
3528;DHT22;1778;47.966;7.854;2023-04-25T05:48:24;8.10;99.90
3528;DHT22;1778;47.966;7.854;2023-04-25T05:49:49;8.10;99.90
3528;DHT22;1778;47.966;7.854;2023-04-25T05:51:01;8.10;99.90
3528;DHT22;1778;47.966;7.854;2023-04-25T05:52:26;8.10;99.90
3528;DHT22;1778;47.966;7.854;2023-04-25T05:53:50;8.10;99.90
3528;DHT22;1778;47.966;7.854;2023-04-25T05:54:52;8.10;99.90
3528;DHT22;1778;47.966;7.854;2023-04-25T05:55:54;8.00;99.90
3528;DHT22;1778;47.966;7.854;2023-04-25T05:56:58;8.20;99.90
3528;DHT22;1778;47.966;7.854;2023-04-25T05:57:59;8.20;99.90
3528;DHT22;1778;47.966;7.854;2023-04-25T05:59:01;8.20;99.90
3528;DHT22;1778;47.966;7.854;2023-04-25T06:00:03;8.20;99.90
3528;DHT22;1778;47.966;7.854;2023-04-25T06:01:18;8.10;99.90
3528;DHT22;1778;47.966;7.854;2023-04-25T06:02:20;8.10;99.90
3528;DHT22;1778;47.966;7.854;2023-04-25T06:03:23;8.10;99.90
3528;DHT22;1778;47.966;7.854;2023-04-25T06:04:26;8.00;99.90
3528;DHT22;1778;47.966;7.854;2023-04-25T06:05:28;8.10;99.90
3528;DHT22;1778;47.966;7.854;2023-04-25T06:06:30;8.10;99.90
3528;DHT22;1778;47.966;7.854;2023-04-25T06:07:33;8.10;99.90
3528;DHT22;1778;47.966;7.854;2023-04-25T06:08:36;8.00;99.90
3528;DHT22;1778;47.966;7.854;2023-04-25T06:09:39;7.90;99.90
3528;DHT22;1778;47.966;7.854;2023-04-25T06:10:41;7.90;99.90
3528;DHT22;1778;47.966;7.854;2023-04-25T06:11:42;7.90;99.90
3528;DHT22;1778;47.966;7.854;2023-04-25T06:12:44;7.90;99.90
3528;DHT22;1778;47.966;7.854;2023-04-25T06:13:48;7.90;99.90
3528;DHT22;1778;47.966;7.854;2023-04-25T06:14:51;7.90;99.90
3528;DHT22;1778;47.966;7.854;2023-04-25T06:15:52;7.90;99.90
3528;DHT22;1778;47.966;7.854;2023-04-25T06:16:54;7.90;99.90
3528;DHT22;1778;47.966;7.854;2023-04-25T06:17:56;7.90;99.90
3528;DHT22;1778;47.966;7.854;2023-04-25T06:18:57;7.80;99.90
3528;DHT22;1778;47.966;7.854;2023-04-25T06:19:59;8.00;99.90
3528;DHT22;1778;47.966;7.854;2023-04-25T06:21:01;8.00;99.90
3528;DHT22;1778;47.966;7.854;2023-04-25T06:22:02;7.90;99.90
3528;DHT22;1778;47.966;7.854;2023-04-25T06:23:05;7.90;99.90
3528;DHT22;1778;47.966;7.854;2023-04-25T06:24:30;7.90;99.90
3528;DHT22;1778;47.966;7.854;2023-04-25T06:25:32;7.80;99.90
3528;DHT22;1778;47.966;7.854;2023-04-25T06:26:33;7.90;99.90
3528;DHT22;1778;47.966;7.854;2023-04-25T06:27:35;8.10;99.90
3528;DHT22;1778;47.966;7.854;2023-04-25T06:28:38;8.10;99.90
3528;DHT22;1778;47.966;7.854;2023-04-25T06:29:39;8.00;99.90
3528;DHT22;1778;47.966;7.854;2023-04-25T06:30:42;7.90;99.90
3528;DHT22;1778;47.966;7.854;2023-04-25T06:31:47;7.90;99.90
3528;DHT22;1778;47.966;7.854;2023-04-25T06:32:49;7.80;99.90
3528;DHT22;1778;47.966;7.854;2023-04-25T06:33:50;7.80;99.90
3528;DHT22;1778;47.966;7.854;2023-04-25T06:34:52;7.80;99.90
3528;DHT22;1778;47.966;7.854;2023-04-25T06:35:54;7.90;99.90
3528;DHT22;1778;47.966;7.854;2023-04-25T06:37:00;7.80;99.90
3528;DHT22;1778;47.966;7.854;2023-04-25T06:38:02;7.80;99.90
3528;DHT22;1778;47.966;7.854;2023-04-25T06:39:05;7.70;99.90
3528;DHT22;1778;47.966;7.854;2023-04-25T06:40:07;7.50;99.90
3528;DHT22;1778;47.966;7.854;2023-04-25T06:41:09;7.50;99.90
3528;DHT22;1778;47.966;7.854;2023-04-25T06:42:11;7.60;99.90
3528;DHT22;1778;47.966;7.854;2023-04-25T06:43:26;7.60;99.90
3528;DHT22;1778;47.966;7.854;2023-04-25T06:44:51;7.60;99.90
3528;DHT22;1778;47.966;7.854;2023-04-25T06:45:54;7.60;99.90
3528;DHT22;1778;47.966;7.854;2023-04-25T06:46:57;7.70;99.90
3528;DHT22;1778;47.966;7.854;2023-04-25T06:47:58;7.70;99.90
3528;DHT22;1778;47.966;7.854;2023-04-25T06:49:00;7.70;99.90
3528;DHT22;1778;47.966;7.854;2023-04-25T06:50:02;7.70;99.90
3528;DHT22;1778;47.966;7.854;2023-04-25T06:51:04;7.60;99.90
3528;DHT22;1778;47.966;7.854;2023-04-25T06:52:07;7.70;99.90
3528;DHT22;1778;47.966;7.854;2023-04-25T06:53:09;7.80;99.90
3528;DHT22;1778;47.966;7.854;2023-04-25T06:54:13;7.80;99.90
3528;DHT22;1778;47.966;7.854;2023-04-25T06:55:26;7.80;99.90
3528;DHT22;1778;47.966;7.854;2023-04-25T06:56:43;7.70;99.90
3528;DHT22;1778;47.966;7.854;2023-04-25T06:57:47;7.70;99.90
3528;DHT22;1778;47.966;7.854;2023-04-25T06:59:15;7.60;99.90
3528;DHT22;1778;47.966;7.854;2023-04-25T07:00:19;7.60;99.90
3528;DHT22;1778;47.966;7.854;2023-04-25T07:01:21;7.60;99.90
3528;DHT22;1778;47.966;7.854;2023-04-25T07:02:23;7.80;99.90
3528;DHT22;1778;47.966;7.854;2023-04-25T07:03:27;7.90;99.90
3528;DHT22;1778;47.966;7.854;2023-04-25T07:04:33;7.80;99.90
3528;DHT22;1778;47.966;7.854;2023-04-25T07:05:36;7.80;99.90
3528;DHT22;1778;47.966;7.854;2023-04-25T07:06:38;7.80;99.90
3528;DHT22;1778;47.966;7.854;2023-04-25T07:07:44;7.80;99.90
3528;DHT22;1778;47.966;7.854;2023-04-25T07:08:45;7.70;99.90
3528;DHT22;1778;47.966;7.854;2023-04-25T07:09:47;7.70;99.90
3528;DHT22;1778;47.966;7.854;2023-04-25T07:10:49;7.70;99.90
3528;DHT22;1778;47.966;7.854;2023-04-25T07:11:51;7.40;99.90
3528;DHT22;1778;47.966;7.854;2023-04-25T07:12:54;7.40;99.90
3528;DHT22;1778;47.966;7.854;2023-04-25T07:13:56;7.30;99.90
3528;DHT22;1778;47.966;7.854;2023-04-25T07:14:57;7.50;99.90
3528;DHT22;1778;47.966;7.854;2023-04-25T07:15:59;7.30;99.90
3528;DHT22;1778;47.966;7.854;2023-04-25T07:17:03;7.30;99.90